Time;durP1;ratioP1;P1;durP2;ratioP2;P2;SDS_P1;SDS_P2;PMS_P1;PMS_P2;Temp;Humidity;BMP_temperature;BMP_pressure;BME280_temperature;BME280_humidity;BME280_pressure;Samples;Min_cycle;Max_cycle;Signal;HPM_P1;HPM_P2
2021/09/08 00:01:26;;;;;;;11.85;7.28;;;;;;;16.89;60.98;93200.22;2058102;69;20154;-74
2021/09/08 00:03:51;;;;;;;9.68;7.10;;;;;;;16.81;60.86;93188.50;2058259;69;20524;-73
2021/09/08 00:06:17;;;;;;;9.57;7.15;;;;;;;16.73;61.72;93191.72;2058164;69;20153;-73
2021/09/08 00:08:42;;;;;;;11.32;6.88;;;;;;;16.83;60.78;93191.44;2058058;69;20235;-73
2021/09/08 00:11:08;;;;;;;10.45;6.68;;;;;;;17.00;60.26;93191.53;2058156;69;20693;-73
2021/09/08 00:13:33;;;;;;;9.95;7.20;;;;;;;16.80;61.41;93190.59;2058139;69;20170;-74
2021/09/08 00:15:59;;;;;;;10.23;7.18;;;;;;;16.58;61.50;93189.53;2057567;69;20675;-72
2021/09/08 00:18:25;;;;;;;10.75;6.82;;;;;;;16.68;61.12;93182.22;2058133;69;20188;-72
2021/09/08 00:20:50;;;;;;;11.27;6.63;;;;;;;16.70;60.65;93185.16;2058068;69;20240;-72
2021/09/08 00:23:16;;;;;;;9.93;7.25;;;;;;;16.37;62.70;93185.03;2057918;69;20157;-72
2021/09/08 00:25:42;;;;;;;8.68;6.85;;;;;;;16.58;60.71;93175.34;2058063;69;20223;-73
2021/09/08 00:28:08;;;;;;;8.82;6.70;;;;;;;16.60;61.49;93178.28;2058130;69;20157;-73
2021/09/08 00:30:33;;;;;;;14.10;7.15;;;;;;;16.41;61.78;93179.53;2057523;69;20173;-72
2021/09/08 00:33:00;;;;;;;10.70;6.95;;;;;;;16.58;61.18;93178.19;2057537;69;20621;-72
2021/09/08 00:35:26;;;;;;;14.35;7.18;;;;;;;16.47;62.06;93179.81;2058047;69;20157;-72
2021/09/08 00:37:53;;;;;;;11.55;7.43;;;;;;;16.43;61.98;93179.63;2057930;69;20157;-73
2021/09/08 00:40:18;;;;;;;12.05;7.35;;;;;;;16.32;62.84;93177.69;2058020;69;20536;-73
2021/09/08 00:42:45;;;;;;;10.05;7.00;;;;;;;16.36;61.73;93172.22;2058238;69;20178;-72
2021/09/08 00:45:13;;;;;;;10.38;6.93;;;;;;;16.47;61.46;93168.44;2058026;69;20148;-73
2021/09/08 00:47:39;;;;;;;9.77;7.00;;;;;;;16.41;62.08;93165.34;2058089;69;20215;-72
2021/09/08 00:50:05;;;;;;;10.75;7.28;;;;;;;16.27;62.68;93166.13;2058115;69;20700;-72
2021/09/08 00:52:32;;;;;;;11.75;7.75;;;;;;;16.19;62.92;93167.88;2058099;69;20153;-72
2021/09/08 00:54:59;;;;;;;11.90;7.05;;;;;;;16.21;62.70;93160.16;2058233;69;20225;-74
2021/09/08 00:57:25;;;;;;;13.23;6.90;;;;;;;16.15;62.78;93167.66;2058405;69;20133;-73
2021/09/08 00:59:51;;;;;;;11.20;7.50;;;;;;;16.19;62.69;93165.75;2058375;69;20251;-74
2021/09/08 01:02:17;;;;;;;10.45;7.22;;;;;;;16.18;62.08;93158.59;2058353;69;20610;-74
2021/09/08 01:04:45;;;;;;;12.10;7.20;;;;;;;16.11;62.99;93168.19;2058311;69;20161;-74
2021/09/08 01:07:11;;;;;;;11.35;7.07;;;;;;;16.11;63.88;93170.31;2058253;69;20162;-74
2021/09/08 01:09:37;;;;;;;13.32;7.07;;;;;;;16.09;63.62;93168.13;2057799;69;20150;-74
2021/09/08 01:12:07;;;;;;;13.38;7.60;;;;;;;16.09;63.01;93161.69;2058220;69;20146;-74
2021/09/08 01:14:34;;;;;;;8.77;6.88;;;;;;;16.22;62.90;93170.16;2058384;69;20162;-74
2021/09/08 01:17:01;;;;;;;11.57;6.88;;;;;;;16.17;63.35;93174.19;2058246;69;20161;-74
2021/09/08 01:19:27;;;;;;;9.60;7.13;;;;;;;16.24;62.07;93170.25;2058245;69;20150;-74
2021/09/08 01:21:52;;;;;;;9.23;6.68;;;;;;;16.22;62.06;93172.28;2058273;69;20153;-74
2021/09/08 01:24:18;;;;;;;12.27;7.07;;;;;;;16.11;61.80;93170.31;2057664;69;20602;-74
2021/09/08 01:26:46;;;;;;;9.85;6.78;;;;;;;15.87;63.11;93181.22;2058262;69;20655;-74
2021/09/08 01:29:11;;;;;;;10.57;7.13;;;;;;;15.88;63.08;93177.75;2058287;69;20154;-74
2021/09/08 01:31:37;;;;;;;9.10;6.85;;;;;;;15.85;63.44;93176.19;2058381;69;20150;-74
2021/09/08 01:34:04;;;;;;;12.20;7.28;;;;;;;15.83;63.13;93173.25;2058311;69;20218;-74
2021/09/08 01:36:37;;;;;;;7.90;6.70;;;;;;;15.79;63.82;93173.03;2058212;69;20146;-74
2021/09/08 01:39:03;;;;;;;9.63;6.75;;;;;;;15.71;63.74;93161.28;2058314;69;20145;-74
2021/09/08 01:41:29;;;;;;;9.55;6.75;;;;;;;15.83;62.90;93169.69;2058337;69;20154;-74
2021/09/08 01:43:54;;;;;;;10.50;6.88;;;;;;;15.63;64.21;93163.72;2058345;69;20647;-74
2021/09/08 01:46:21;;;;;;;10.27;7.10;;;;;;;15.83;62.79;93172.50;2058235;69;20666;-74
2021/09/08 01:48:47;;;;;;;9.55;7.18;;;;;;;15.67;63.95;93161.84;2058322;69;20161;-74
2021/09/08 01:51:14;;;;;;;9.38;7.10;;;;;;;15.68;63.98;93160.47;2058298;69;20145;-74
2021/09/08 01:53:40;;;;;;;11.82;6.97;;;;;;;15.73;63.36;93170.66;2058161;69;20146;-73
2021/09/08 01:56:06;;;;;;;11.50;6.90;;;;;;;15.75;62.49;93162.22;2058399;69;20156;-74
2021/09/08 01:58:32;;;;;;;10.13;6.50;;;;;;;15.77;62.27;93160.88;2058246;69;20141;-73
2021/09/08 02:01:01;;;;;;;11.43;7.32;;;;;;;15.55;63.92;93163.31;2058218;69;20529;-74
2021/09/08 02:03:26;;;;;;;10.77;7.15;;;;;;;15.63;62.80;93167.28;2058372;69;20146;-74
2021/09/08 02:05:52;;;;;;;11.35;7.00;;;;;;;15.31;63.77;93131.63;2058353;69;20620;-73
2021/09/08 02:08:18;;;;;;;10.07;7.43;;;;;;;15.34;63.85;93153.75;2057579;69;20150;-74
2021/09/08 02:10:43;;;;;;;9.68;6.68;;;;;;;15.50;63.46;93148.91;2057660;69;20162;-74
2021/09/08 02:13:11;;;;;;;12.65;7.00;;;;;;;15.39;63.77;93155.44;2058356;69;20494;-74
2021/09/08 02:15:37;;;;;;;9.68;6.55;;;;;;;15.58;62.61;93157.09;2058229;69;20201;-74
2021/09/08 02:18:03;;;;;;;9.38;7.07;;;;;;;15.51;63.08;93150.38;2058316;69;20225;-74
2021/09/08 02:20:28;;;;;;;10.50;6.95;;;;;;;15.42;63.23;93156.28;2058528;69;20157;-74
2021/09/08 02:22:54;;;;;;;9.68;6.80;;;;;;;15.48;63.43;93157.31;2058599;69;20165;-74
2021/09/08 02:25:19;;;;;;;11.43;7.10;;;;;;;15.37;63.95;93152.50;2058842;69;20589;-75
2021/09/08 02:27:45;;;;;;;13.07;7.60;;;;;;;15.17;65.19;93148.66;2058705;69;20164;-74
2021/09/08 02:30:12;;;;;;;8.88;7.35;;;;;;;15.21;64.22;93149.59;2058144;69;20142;-73
2021/09/08 02:32:37;;;;;;;10.48;6.82;;;;;;;15.30;63.71;93147.88;2058702;69;20157;-74
2021/09/08 02:35:04;;;;;;;10.00;7.40;;;;;;;15.19;64.70;93145.91;2058791;69;20505;-73
2021/09/08 02:37:30;;;;;;;11.20;7.25;;;;;;;15.18;64.73;93148.03;2058583;69;20166;-74
2021/09/08 02:39:55;;;;;;;11.35;7.13;;;;;;;15.29;63.33;93148.53;2058653;69;20180;-74
2021/09/08 02:42:21;;;;;;;10.30;6.70;;;;;;;15.27;64.11;93146.34;2058667;69;20150;-74
2021/09/08 02:44:47;;;;;;;12.35;7.25;;;;;;;15.13;65.02;93145.63;2058734;69;20149;-74
2021/09/08 02:47:13;;;;;;;11.75;6.90;;;;;;;15.06;64.94;93146.66;2058654;69;20166;-74
2021/09/08 02:49:38;;;;;;;10.48;7.05;;;;;;;15.12;64.84;93146.97;2058755;69;20138;-74
2021/09/08 02:52:04;;;;;;;11.20;7.38;;;;;;;15.09;64.81;93148.25;2058679;69;20205;-74
2021/09/08 02:54:30;;;;;;;9.45;6.82;;;;;;;15.06;64.34;93150.22;2058242;69;20141;-74
2021/09/08 02:56:56;;;;;;;10.50;6.97;;;;;;;15.16;63.90;93145.06;2058791;69;20223;-74
2021/09/08 02:59:21;;;;;;;10.05;7.03;;;;;;;15.11;64.10;93148.34;2058622;69;20157;-74
2021/09/08 03:01:47;;;;;;;13.05;7.75;;;;;;;15.07;64.83;93148.13;2058730;69;20141;-74
2021/09/08 03:04:12;;;;;;;12.27;7.80;;;;;;;15.02;64.07;93143.59;2058655;69;20250;-73
2021/09/08 03:06:38;;;;;;;10.98;7.55;;;;;;;14.93;65.21;93136.78;2058521;69;20269;-74
2021/09/08 03:09:04;;;;;;;11.07;7.10;;;;;;;14.99;64.06;93140.69;2058095;69;20552;-73
2021/09/08 03:11:29;;;;;;;10.85;6.85;;;;;;;15.11;63.41;93134.88;2058653;69;20145;-74
2021/09/08 03:13:55;;;;;;;10.13;6.97;;;;;;;14.97;64.68;93142.66;2058606;69;20141;-73
2021/09/08 03:16:21;;;;;;;11.57;7.30;;;;;;;14.95;64.80;93148.97;2058645;69;20164;-74
2021/09/08 03:18:47;;;;;;;9.88;6.88;;;;;;;15.13;63.40;93134.28;2058606;69;20133;-74
2021/09/08 03:21:12;;;;;;;9.73;6.65;;;;;;;15.12;62.64;93138.44;2058623;69;20156;-74
2021/09/08 03:23:38;;;;;;;10.43;6.82;;;;;;;15.03;64.64;93145.06;2058499;69;20165;-73
2021/09/08 03:26:04;;;;;;;10.80;7.28;;;;;;;14.96;65.12;93135.53;2058592;69;20173;-73
2021/09/08 03:28:29;;;;;;;9.65;7.00;;;;;;;15.07;63.00;93143.19;2058627;69;20150;-74
2021/09/08 03:30:55;;;;;;;9.32;6.80;;;;;;;15.17;62.81;93135.22;2058502;69;20165;-73
2021/09/08 03:33:21;;;;;;;12.63;7.20;;;;;;;14.79;65.31;93144.56;2058483;69;20129;-74
2021/09/08 03:35:47;;;;;;;12.15;7.88;;;;;;;14.32;67.21;93133.56;2058611;69;20164;-74
2021/09/08 03:38:13;;;;;;;10.48;7.47;;;;;;;14.64;64.64;93132.47;2058476;69;20146;-74
2021/09/08 03:40:42;;;;;;;13.65;7.50;;;;;;;14.69;65.56;93133.44;2058130;69;20589;-73
2021/09/08 03:43:07;;;;;;;11.05;7.32;;;;;;;14.61;66.02;93125.22;2058586;69;20215;-74
2021/09/08 03:45:33;;;;;;;11.95;7.35;;;;;;;14.73;64.74;93125.88;2058573;69;20166;-74
2021/09/08 03:47:58;;;;;;;11.30;7.40;;;;;;;14.64;65.83;93126.81;2058588;69;20609;-74
2021/09/08 03:50:24;;;;;;;12.88;7.43;;;;;;;14.53;66.00;93127.66;2057989;69;20185;-74
2021/09/08 03:52:50;;;;;;;11.02;7.60;;;;;;;14.64;65.02;93120.41;2058454;69;20133;-73
2021/09/08 03:55:16;;;;;;;12.40;7.00;;;;;;;14.66;65.17;93126.16;2058527;69;20662;-74
2021/09/08 03:57:41;;;;;;;12.70;7.88;;;;;;;14.60;65.59;93123.75;2058525;69;20597;-73
2021/09/08 04:00:08;;;;;;;10.50;7.03;;;;;;;14.67;62.19;93119.91;2058627;69;20142;-74
2021/09/08 04:02:34;;;;;;;10.35;7.55;;;;;;;14.53;66.22;93118.44;2057937;69;20204;-73
2021/09/08 04:05:00;;;;;;;11.82;7.35;;;;;;;14.79;65.20;93116.22;2058502;69;20181;-73
2021/09/08 04:07:28;;;;;;;11.13;6.70;;;;;;;14.81;64.43;93125.56;2058426;69;20203;-74
2021/09/08 04:09:54;;;;;;;10.90;7.40;;;;;;;14.56;66.04;93122.81;2058521;69;20166;-73
2021/09/08 04:12:20;;;;;;;13.60;7.40;;;;;;;14.54;65.12;93129.13;2058496;69;20245;-74
2021/09/08 04:14:46;;;;;;;10.95;7.40;;;;;;;14.71;64.84;93125.03;2058488;69;20173;-74
2021/09/08 04:17:11;;;;;;;12.88;7.30;;;;;;;14.67;64.44;93119.16;2058519;69;20225;-74
2021/09/08 04:19:37;;;;;;;13.57;7.40;;;;;;;14.80;63.33;93121.28;2057951;69;20186;-74
2021/09/08 04:22:03;;;;;;;11.48;7.07;;;;;;;14.61;65.12;93113.91;2058409;69;20175;-74
2021/09/08 04:24:28;;;;;;;10.25;7.35;;;;;;;14.54;64.69;93114.94;2058541;69;20228;-75
2021/09/08 04:26:54;;;;;;;15.10;7.15;;;;;;;14.56;64.79;93123.53;2057908;69;20618;-75
2021/09/08 04:29:20;;;;;;;9.23;7.40;;;;;;;14.60;64.45;93118.09;2058056;69;20248;-76
2021/09/08 04:31:45;;;;;;;10.13;7.25;;;;;;;14.65;64.88;93116.22;2058589;69;20616;-75
2021/09/08 04:34:11;;;;;;;10.27;7.22;;;;;;;14.59;63.90;93118.72;2058419;69;20152;-75
2021/09/08 04:36:37;;;;;;;12.57;6.82;;;;;;;14.55;64.00;93112.84;2058438;69;20145;-75
2021/09/08 04:39:03;;;;;;;15.57;7.28;;;;;;;14.25;66.25;93124.00;2058511;69;20141;-75
2021/09/08 04:41:29;;;;;;;10.57;6.95;;;;;;;14.50;64.84;93120.41;2058410;69;20165;-75
2021/09/08 04:43:55;;;;;;;14.82;7.93;;;;;;;14.53;64.86;93130.50;2058372;69;20208;-75
2021/09/08 04:46:20;;;;;;;13.50;8.35;;;;;;;14.35;66.47;93116.06;2058546;69;20153;-75
2021/09/08 04:48:46;;;;;;;11.30;7.35;;;;;;;14.33;66.13;93113.09;2058515;69;20232;-75
2021/09/08 04:51:12;;;;;;;10.73;7.07;;;;;;;14.41;64.91;93122.03;2058378;69;20137;-75
2021/09/08 04:53:37;;;;;;;9.75;7.32;;;;;;;14.36;65.56;93117.53;2058292;69;20585;-74
2021/09/08 04:56:04;;;;;;;10.38;7.00;;;;;;;14.48;65.33;93121.03;2058447;69;20577;-75
2021/09/08 04:58:29;;;;;;;11.13;7.15;;;;;;;14.49;65.80;93113.28;2058390;69;20158;-75
2021/09/08 05:00:55;;;;;;;9.38;6.75;;;;;;;14.47;65.17;93122.34;2058366;69;20223;-75
2021/09/08 05:03:21;;;;;;;14.00;7.45;;;;;;;14.24;66.14;93117.59;2058424;69;20203;-75
2021/09/08 05:05:46;;;;;;;11.63;7.38;;;;;;;14.36;64.47;93111.84;2058392;69;20257;-75
2021/09/08 05:08:12;;;;;;;13.68;7.70;;;;;;;14.36;65.05;93120.34;2058280;69;20149;-72
2021/09/08 05:10:37;;;;;;;10.32;7.40;;;;;;;14.40;65.16;93112.06;2058439;69;20150;-72
2021/09/08 05:13:03;;;;;;;11.73;7.40;;;;;;;14.41;65.60;93122.03;2058359;69;20146;-75
2021/09/08 05:15:29;;;;;;;12.93;7.18;;;;;;;14.49;64.33;93118.94;2058498;69;20138;-75
2021/09/08 05:17:55;;;;;;;13.27;7.43;;;;;;;14.54;64.16;93114.22;2058465;69;20249;-75
2021/09/08 05:20:20;;;;;;;13.43;7.57;;;;;;;14.39;65.49;93113.44;2058289;69;20242;-75
2021/09/08 05:22:46;;;;;;;12.13;7.55;;;;;;;14.47;65.29;93121.63;2058286;69;20137;-75
2021/09/08 05:25:12;;;;;;;12.90;7.65;;;;;;;14.36;65.52;93117.53;2057779;69;20235;-74
2021/09/08 05:27:37;;;;;;;11.40;7.68;;;;;;;14.27;66.73;93123.38;2058281;69;20601;-74
2021/09/08 05:30:04;;;;;;;10.98;7.55;;;;;;;14.35;65.93;93116.06;2058434;69;20166;-74
2021/09/08 05:32:30;;;;;;;9.98;6.93;;;;;;;14.44;65.60;93122.88;2058438;69;20601;-75
2021/09/08 05:34:56;;;;;;;10.15;6.60;;;;;;;14.47;64.88;93125.19;2058410;69;20165;-74
2021/09/08 05:37:23;;;;;;;14.25;7.93;;;;;;;14.42;65.75;93122.78;2058167;69;20142;-75
2021/09/08 05:39:48;;;;;;;12.93;7.53;;;;;;;14.40;65.50;93114.91;2058280;69;20134;-75
2021/09/08 05:42:14;;;;;;;11.60;7.68;;;;;;;14.46;65.53;93117.31;2058409;69;20165;-75
2021/09/08 05:44:39;;;;;;;11.70;8.38;;;;;;;14.45;65.35;93130.03;2058287;69;20537;-75
2021/09/08 05:47:05;;;;;;;16.08;8.57;;;;;;;14.21;66.43;93121.69;2058256;69;20173;-75
2021/09/08 05:49:31;;;;;;;14.70;7.82;;;;;;;14.51;65.19;93126.78;2058343;69;20268;-75
2021/09/08 05:51:56;;;;;;;10.38;7.55;;;;;;;14.47;65.89;93121.63;2058277;69;20148;-75
2021/09/08 05:54:22;;;;;;;14.52;8.18;;;;;;;14.46;65.86;93123.72;2058385;69;20142;-74
2021/09/08 05:56:47;;;;;;;16.80;8.77;;;;;;;14.23;67.98;93118.22;2058779;69;20192;-72
2021/09/08 05:59:13;;;;;;;13.55;7.70;;;;;;;14.54;64.72;93126.28;2058803;69;20142;-73
2021/09/08 06:01:38;;;;;;;10.90;7.65;;;;;;;14.56;65.69;93120.72;2058800;69;20249;-74
2021/09/08 06:04:04;;;;;;;15.93;8.48;;;;;;;14.17;68.12;93121.47;2058847;69;20177;-73
2021/09/08 06:06:30;;;;;;;16.80;8.50;;;;;;;14.29;67.15;93120.66;2058047;69;20150;-75
2021/09/08 06:08:55;;;;;;;15.35;8.27;;;;;;;14.52;65.32;93117.66;2058827;69;20186;-74
2021/09/08 06:11:21;;;;;;;14.20;7.68;;;;;;;14.52;65.66;93114.81;2058818;69;20177;-75
2021/09/08 06:13:46;;;;;;;14.18;8.23;;;;;;;14.54;65.59;93112.13;2058163;69;20151;-73
2021/09/08 06:16:12;;;;;;;11.93;7.90;;;;;;;14.68;64.93;93112.13;2058735;69;20130;-73
2021/09/08 06:18:37;;;;;;;13.85;7.70;;;;;;;14.61;66.63;93111.06;2058945;69;20215;-73
2021/09/08 06:21:03;;;;;;;12.95;8.02;;;;;;;14.59;66.73;93110.22;2058641;69;20148;-73
2021/09/08 06:23:29;;;;;;;13.40;8.70;;;;;;;14.60;65.95;93114.53;2058593;69;20149;-73
2021/09/08 06:25:55;;;;;;;14.52;8.38;;;;;;;14.58;65.82;93105.94;2058754;69;20153;-73
2021/09/08 06:28:20;;;;;;;14.65;8.35;;;;;;;14.64;66.05;93106.25;2058810;69;20138;-74
2021/09/08 06:30:46;;;;;;;12.80;8.32;;;;;;;14.71;66.23;93114.44;2055391;69;20522;-74
2021/09/08 06:33:12;;;;;;;15.70;9.43;;;;;;;14.63;66.76;93116.84;2058724;69;20175;-73
2021/09/08 06:35:37;;;;;;;17.08;8.80;;;;;;;14.71;66.11;93108.78;2058673;69;20505;-73
2021/09/08 06:38:03;;;;;;;17.33;9.48;;;;;;;14.74;66.46;93113.16;2058621;69;20177;-74
2021/09/08 06:40:28;;;;;;;15.60;7.82;;;;;;;14.96;63.59;93118.53;2058605;69;20196;-74
2021/09/08 06:42:54;;;;;;;15.55;8.32;;;;;;;14.77;66.17;93116.84;2058912;69;20169;-74
2021/09/08 06:45:20;;;;;;;20.17;9.30;;;;;;;14.51;67.65;93112.63;2058680;69;20363;-74
2021/09/08 06:47:46;;;;;;;19.42;9.68;;;;;;;14.77;66.74;93116.13;2058665;69;20133;-75
2021/09/08 06:50:12;;;;;;;12.50;8.50;;;;;;;15.20;63.10;93108.41;2058110;69;20155;-74
2021/09/08 06:52:37;;;;;;;20.52;9.32;;;;;;;15.61;62.93;93109.69;2058514;69;20248;-73
2021/09/08 06:55:04;;;;;;;25.23;9.98;;;;;;;15.89;64.65;93101.81;2058774;69;20607;-74
2021/09/08 06:57:29;;;;;;;18.67;10.90;;;;;;;15.42;66.48;93110.91;2058641;69;20148;-73
2021/09/08 06:59:55;;;;;;;17.45;10.48;;;;;;;15.92;65.85;93104.13;2058057;69;20670;-73
2021/09/08 07:02:21;;;;;;;13.80;9.27;;;;;;;16.59;62.26;93102.94;2058725;69;20148;-74
2021/09/08 07:04:47;;;;;;;15.75;9.43;;;;;;;16.99;63.29;93104.00;2058725;69;20162;-74
2021/09/08 07:07:12;;;;;;;17.65;8.90;;;;;;;17.22;61.68;93095.03;2057918;69;20146;-74
2021/09/08 07:09:38;;;;;;;12.98;8.25;;;;;;;17.52;59.48;93103.41;2058066;69;20266;-75
2021/09/08 07:12:04;;;;;;;11.88;7.47;;;;;;;17.67;59.04;93108.28;2058615;69;20150;-74
2021/09/08 07:14:32;;;;;;;13.30;7.90;;;;;;;17.94;58.73;93106.53;2058153;69;20145;-75
2021/09/08 07:16:58;;;;;;;12.10;8.07;;;;;;;18.22;58.84;93101.94;2058533;69;20224;-73
2021/09/08 07:19:23;;;;;;;20.08;8.10;;;;;;;19.46;54.28;93108.63;2058583;69;20244;-75
2021/09/08 07:21:49;;;;;;;12.40;7.80;;;;;;;18.65;58.22;93105.72;2058447;69;20149;-75
2021/09/08 07:24:15;;;;;;;10.75;7.05;;;;;;;18.56;58.43;93103.94;2058653;69;20239;-75
2021/09/08 07:26:40;;;;;;;12.18;7.57;;;;;;;20.28;52.40;93102.75;2057964;69;20513;-75
2021/09/08 07:29:07;;;;;;;15.57;8.45;;;;;;;18.56;54.80;93101.81;2058633;69;20512;-75
2021/09/08 07:31:33;;;;;;;10.55;7.13;;;;;;;19.31;54.88;93098.13;2058004;69;20501;-75
2021/09/08 07:33:59;;;;;;;14.15;6.90;;;;;;;19.48;53.79;93093.69;2058504;69;20631;-75
2021/09/08 07:36:25;;;;;;;9.38;6.70;;;;;;;20.98;51.23;93094.84;2058508;69;20173;-75
2021/09/08 07:38:52;;;;;;;10.65;7.30;;;;;;;21.56;49.12;93091.41;2058512;69;20177;-75
2021/09/08 07:41:19;;;;;;;10.40;7.05;;;;;;;20.04;50.26;93086.28;2058579;69;20162;-74
2021/09/08 07:43:46;;;;;;;9.32;6.47;;;;;;;21.28;49.27;93091.38;2058517;69;20161;-74
2021/09/08 07:46:12;;;;;;;8.00;6.32;;;;;;;22.04;48.20;93082.59;2058436;69;20138;-74
2021/09/08 07:48:39;;;;;;;8.00;5.75;;;;;;;21.43;49.73;93084.63;2055236;69;20249;-74
2021/09/08 07:51:05;;;;;;;12.10;6.10;;;;;;;21.86;49.08;93082.16;2058518;69;20708;-74
2021/09/08 07:53:30;;;;;;;9.15;6.50;;;;;;;21.38;51.25;93080.19;2058412;69;20240;-73
2021/09/08 07:55:56;;;;;;;8.50;6.30;;;;;;;21.18;50.13;93074.66;2058500;69;20146;-72
2021/09/08 07:58:22;;;;;;;7.97;5.93;;;;;;;21.53;49.54;93076.31;2058539;69;20517;-74
2021/09/08 08:00:47;;;;;;;12.00;5.95;;;;;;;23.59;46.58;93083.78;2058675;69;20165;-74
2021/09/08 08:03:13;;;;;;;8.20;5.82;;;;;;;22.44;47.63;93082.81;2058487;69;20239;-74
2021/09/08 08:05:39;;;;;;;6.90;5.80;;;;;;;22.30;47.36;93071.03;2058580;69;20153;-75
2021/09/08 08:08:04;;;;;;;11.25;6.20;;;;;;;23.79;44.33;93082.72;2058334;69;20212;-75
2021/09/08 08:10:31;;;;;;;7.95;6.00;;;;;;;22.54;47.38;93076.59;2058573;69;20208;-74
2021/09/08 08:12:57;;;;;;;8.93;5.82;;;;;;;22.38;45.25;93067.63;2058464;69;20156;-75
2021/09/08 08:15:23;;;;;;;7.65;6.10;;;;;;;23.34;47.16;93065.34;2058452;69;20204;-74
2021/09/08 08:17:49;;;;;;;6.72;5.88;;;;;;;23.09;44.92;93060.53;2058435;69;20150;-73
2021/09/08 08:20:16;;;;;;;10.52;6.03;;;;;;;23.14;45.80;93062.09;2058420;69;20165;-73
2021/09/08 08:22:42;;;;;;;9.10;6.20;;;;;;;23.50;45.41;93061.31;2058375;69;20283;-74
2021/09/08 08:25:10;;;;;;;7.07;5.90;;;;;;;24.03;45.03;93051.50;2058473;69;20157;-74
2021/09/08 08:27:36;;;;;;;7.97;5.97;;;;;;;23.99;43.23;93050.72;2058397;69;20173;-74
2021/09/08 08:30:04;;;;;;;7.78;5.40;;;;;;;24.28;42.10;93049.00;2058594;69;20581;-73
2021/09/08 08:32:29;;;;;;;9.18;6.03;;;;;;;23.55;44.40;93046.38;2058670;69;20153;-73
2021/09/08 08:34:55;;;;;;;8.73;5.72;;;;;;;24.42;43.19;93046.38;2058397;69;20500;-73
2021/09/08 08:37:20;;;;;;;7.47;5.85;;;;;;;24.97;41.66;93046.38;2058382;69;20628;-74
2021/09/08 08:39:46;;;;;;;10.18;5.55;;;;;;;25.34;42.47;93048.31;2057881;69;20141;-74
2021/09/08 08:42:24;;;;;;;7.43;5.65;;;;;;;25.15;41.85;93040.84;2058535;69;20664;-73
2021/09/08 08:44:50;;;;;;;6.75;5.93;;;;;;;25.04;40.90;93039.28;2058438;69;20150;-74
2021/09/08 08:47:17;;;;;;;8.43;6.28;;;;;;;26.97;38.23;93040.25;2058354;69;20158;-74
2021/09/08 08:49:44;;;;;;;8.57;5.47;;;;;;;26.05;39.75;93039.63;2058510;69;20149;-74
2021/09/08 08:52:11;;;;;;;9.13;5.70;;;;;;;25.02;40.78;93028.47;2058304;69;20146;-73
2021/09/08 08:54:37;;;;;;;10.93;6.03;;;;;;;25.84;40.18;93032.97;2057826;69;20195;-74
2021/09/08 08:57:03;;;;;;;6.72;5.68;;;;;;;26.02;38.19;93020.84;2057834;69;20146;-75
2021/09/08 08:59:28;;;;;;;6.70;5.55;;;;;;;25.93;38.73;93016.44;2057925;69;20141;-74
2021/09/08 09:01:54;;;;;;;8.13;5.35;;;;;;;28.70;35.09;93031.19;2058516;69;20153;-78
2021/09/08 09:04:21;;;;;;;7.18;5.50;;;;;;;28.69;35.08;93011.63;2058385;69;20133;-74
2021/09/08 09:06:49;;;;;;;6.68;5.68;;;;;;;29.37;33.94;93012.88;2058276;69;20516;-77
2021/09/08 09:09:17;;;;;;;7.70;5.82;;;;;;;28.07;35.70;93019.63;2058479;69;20220;-78
2021/09/08 09:11:47;;;;;;;8.98;5.70;;;;;;;28.16;35.65;93012.38;2058455;69;20593;-76
2021/09/08 09:14:15;;;;;;;5.93;5.25;;;;;;;28.88;35.86;93013.03;2058388;69;20156;-75
2021/09/08 09:16:42;;;;;;;7.97;5.43;;;;;;;29.04;35.56;93007.19;2058376;69;20149;-75
2021/09/08 09:19:11;;;;;;;6.90;5.20;;;;;;;30.95;31.85;93000.78;2057809;69;20166;-78
2021/09/08 09:21:37;;;;;;;6.03;5.28;;;;;;;28.42;35.49;92994.31;2058355;69;20601;-75
2021/09/08 09:24:06;;;;;;;6.47;5.40;;;;;;;27.90;34.85;92989.22;2058369;69;20154;-76
2021/09/08 09:26:37;;;;;;;6.78;5.43;;;;;;;28.41;35.97;92980.53;2058352;69;20146;-75
2021/09/08 09:29:07;;;;;;;6.30;5.43;;;;;;;28.85;34.40;92980.44;2058174;69;20157;-75
2021/09/08 09:31:33;;;;;;;5.82;5.22;;;;;;;29.51;34.50;92983.06;2058277;69;20262;-75
2021/09/08 09:33:59;;;;;;;5.88;5.28;;;;;;;29.04;32.72;92977.50;2058284;69;20149;-75
2021/09/08 09:36:30;;;;;;;6.47;5.40;;;;;;;28.72;33.79;92973.22;2058315;69;20165;-75
2021/09/08 09:38:57;;;;;;;5.68;5.10;;;;;;;28.96;34.80;92971.75;2058437;69;20256;-74
2021/09/08 09:41:32;;;;;;;7.30;5.15;;;;;;;30.13;32.59;92973.22;2058269;69;20173;-76
2021/09/08 09:44:08;;;;;;;8.27;5.22;;;;;;;30.46;31.49;92975.84;2058445;69;20224;-76
2021/09/08 09:46:34;;;;;;;5.80;5.20;;;;;;;29.75;31.79;92967.72;2058293;69;20174;-76
2021/09/08 09:49:03;;;;;;;7.68;5.45;;;;;;;31.18;31.32;92969.28;2057710;69;20160;-77
2021/09/08 09:51:29;;;;;;;7.25;5.18;;;;;;;30.61;30.58;92968.44;2058156;69;20601;-78
2021/09/08 09:53:54;;;;;;;5.30;4.82;;;;;;;30.98;30.40;92970.25;2058302;69;20150;-76
2021/09/08 09:56:20;;;;;;;5.72;5.10;;;;;;;31.46;30.13;92968.19;2058279;69;20223;-76
2021/09/08 09:58:47;;;;;;;5.78;4.88;;;;;;;31.35;29.89;92956.00;2058298;69;20512;-75
2021/09/08 10:01:12;;;;;;;5.18;4.57;;;;;;;32.11;29.31;92958.50;2058221;69;20695;-73
2021/09/08 10:03:39;;;;;;;7.45;5.35;;;;;;;30.14;29.35;92950.72;2058233;69;20157;-80
2021/09/08 10:06:05;;;;;;;7.57;5.18;;;;;;;30.60;30.66;92943.00;2058239;69;20609;-73
2021/09/08 10:08:33;;;;;;;6.03;5.22;;;;;;;30.37;31.54;92939.63;2058120;69;20136;-73
2021/09/08 10:11:04;;;;;;;5.40;4.90;;;;;;;31.75;27.84;92940.16;2057691;69;20212;-79
2021/09/08 10:13:41;;;;;;;8.05;5.63;;;;;;;31.31;29.75;92933.50;2057681;69;20153;-74
2021/09/08 10:16:07;;;;;;;5.93;5.28;;;;;;;31.36;28.21;92929.06;2057647;69;20145;-74
2021/09/08 10:18:35;;;;;;;6.50;5.10;;;;;;;32.64;28.52;92923.38;2058235;69;20142;-74
2021/09/08 10:21:06;;;;;;;7.60;5.38;;;;;;;31.73;28.73;92916.16;2058217;69;20508;-74
2021/09/08 10:23:40;;;;;;;6.18;4.65;;;;;;;32.80;27.70;92913.59;2058148;69;20241;-75
2021/09/08 10:26:14;;;;;;;5.70;4.90;;;;;;;33.08;27.40;92912.34;2058255;69;20152;-74
2021/09/08 10:28:41;;;;;;;4.90;4.47;;;;;;;32.92;26.91;92912.66;2058214;69;20204;-75
2021/09/08 10:31:09;;;;;;;6.47;4.80;;;;;;;33.43;27.50;92911.63;2058247;69;20167;-74
2021/09/08 10:33:43;;;;;;;8.55;4.93;;;;;;;32.85;25.96;92905.47;2058259;69;20185;-76
2021/09/08 10:36:13;;;;;;;5.13;4.57;;;;;;;32.71;28.24;92897.03;2058441;69;20156;-74
2021/09/08 10:38:39;;;;;;;4.65;4.22;;;;;;;34.18;25.64;92896.75;2058028;69;20177;-75
2021/09/08 10:41:07;;;;;;;5.30;4.28;;;;;;;34.77;24.91;92893.00;2054961;69;20158;-75
2021/09/08 10:43:37;;;;;;;5.07;4.25;;;;;;;34.97;24.75;92891.03;2053628;69;20169;-75
2021/09/08 10:46:05;;;;;;;10.18;4.10;;;;;;;35.45;25.64;92891.78;2057000;69;20170;-75
2021/09/08 10:48:42;;;;;;;5.13;4.05;;;;;;;34.07;25.80;92888.22;2056557;69;20208;-75
2021/09/08 10:51:10;;;;;;;4.45;4.05;;;;;;;35.50;24.83;92883.63;2057054;69;20274;-75
2021/09/08 10:53:38;;;;;;;4.38;3.97;;;;;;;36.03;22.43;92879.06;2057300;69;20169;-75
2021/09/08 10:56:05;;;;;;;6.32;3.83;;;;;;;36.86;23.48;92881.34;2057464;69;20287;-76
2021/09/08 10:58:54;;;;;;;5.80;3.85;;;;;;;37.64;22.15;92879.94;2057904;69;20146;-76
2021/09/08 11:01:19;;;;;;;4.90;4.03;;;;;;;37.42;21.00;92871.97;2058116;69;20582;-75
2021/09/08 11:03:45;;;;;;;4.63;3.70;;;;;;;40.03;19.55;92874.78;2058110;69;20153;-76
2021/09/08 11:06:11;;;;;;;6.00;3.60;;;;;;;42.22;18.35;92887.72;2058211;69;20207;-75
2021/09/08 11:08:36;;;;;;;3.53;3.22;;;;;;;42.62;17.35;92879.47;2057890;69;20149;-75
2021/09/08 11:11:13;;;;;;;4.93;3.33;;;;;;;42.65;17.05;92880.06;2058131;69;20621;-77
2021/09/08 11:13:40;;;;;;;3.60;3.15;;;;;;;43.27;16.08;92865.97;2058403;69;20599;-73
2021/09/08 11:16:18;;;;;;;4.18;3.05;;;;;;;44.20;16.27;92858.63;2057899;69;20148;-75
2021/09/08 11:18:45;;;;;;;4.07;2.95;;;;;;;44.98;16.19;92857.16;2058074;69;20237;-74
2021/09/08 11:21:10;;;;;;;3.88;2.92;;;;;;;45.97;15.86;92862.94;2058114;69;20517;-75
2021/09/08 11:23:37;;;;;;;4.53;3.15;;;;;;;46.30;13.89;92861.28;2057431;69;20602;-78
2021/09/08 11:26:08;;;;;;;3.40;3.10;;;;;;;46.40;15.18;92865.78;2058103;69;20134;-75